Weather at RCAF Station Pearce [CLOSED]

Public forecast

Using degrees Celsius for public forecast. Weather courtesy of forecast.io.

Closest aviation weather report (METAR) to RCAF Station Pearce

Closest report is Lethbridge County Airport, 21.1 nm (39.0 km) SE.

2024/05/30 03:00 (retrieved 56 minutes ago)

CYQL 300300Z 24017G24KT 60SM FEW060 FEW150 BKN270 10/00 A2990 RMK SC1AC1CI5 SC TR SLP134

Closest aviation forecast (TAF) to RCAF Station Pearce

Forecast is more than 6 hours old.

Closest forecast is Malmstrom Air Force Base, 161.9 nm (299.8 km) SSE.

2024/05/29 21:03 (retrieved 7 hours ago)

TAF KGFA 292100Z 2921/3103 27012G18KT 9999 BKN090 BKN120 QNH2991INS BECMG 3004/3005 26009KT 9999 SCT080 BKN180 QNH3002INS BECMG 3014/3015 27015G25KT 9999 SCT080 QNH3007INS BECMG 3102/3103 28009KT 9999 SCT080 QNH3006INS TX18/2922Z TN07/3012Z